sensor_id;sensor_type;location;lat;lon;timestamp;P1;durP1;ratioP1;P2;durP2;ratioP2
49842;SDS011;55559;48.898;9.184;2022-12-18T00:02:10;121.75;;;53.00;;
49842;SDS011;55559;48.898;9.184;2022-12-18T00:04:44;128.13;;;52.53;;
49842;SDS011;55559;48.898;9.184;2022-12-18T00:07:12;130.10;;;51.42;;
49842;SDS011;55559;48.898;9.184;2022-12-18T00:09:42;132.85;;;52.65;;
49842;SDS011;55559;48.898;9.184;2022-12-18T00:12:09;121.75;;;52.65;;
49842;SDS011;55559;48.898;9.184;2022-12-18T00:14:41;132.32;;;51.53;;
49842;SDS011;55559;48.898;9.184;2022-12-18T00:17:09;132.30;;;51.65;;
49842;SDS011;55559;48.898;9.184;2022-12-18T00:19:39;125.93;;;50.80;;
49842;SDS011;55559;48.898;9.184;2022-12-18T00:22:08;119.38;;;51.42;;
49842;SDS011;55559;48.898;9.184;2022-12-18T00:24:36;128.98;;;49.85;;
49842;SDS011;55559;48.898;9.184;2022-12-18T00:27:04;110.55;;;47.53;;
49842;SDS011;55559;48.898;9.184;2022-12-18T00:29:33;132.48;;;51.30;;
49842;SDS011;55559;48.898;9.184;2022-12-18T00:32:05;125.65;;;50.05;;
49842;SDS011;55559;48.898;9.184;2022-12-18T00:34:32;121.63;;;50.78;;
49842;SDS011;55559;48.898;9.184;2022-12-18T00:37:00;135.27;;;52.15;;
49842;SDS011;55559;48.898;9.184;2022-12-18T00:39:27;137.32;;;53.97;;
49842;SDS011;55559;48.898;9.184;2022-12-18T00:41:54;126.45;;;51.80;;
49842;SDS011;55559;48.898;9.184;2022-12-18T00:44:42;139.10;;;55.15;;
49842;SDS011;55559;48.898;9.184;2022-12-18T00:47:14;133.48;;;52.47;;
49842;SDS011;55559;48.898;9.184;2022-12-18T00:49:41;136.70;;;55.63;;
49842;SDS011;55559;48.898;9.184;2022-12-18T00:52:16;140.27;;;54.88;;
49842;SDS011;55559;48.898;9.184;2022-12-18T00:54:50;136.88;;;55.10;;
49842;SDS011;55559;48.898;9.184;2022-12-18T00:57:46;135.23;;;54.63;;
49842;SDS011;55559;48.898;9.184;2022-12-18T01:00:28;130.93;;;53.15;;
49842;SDS011;55559;48.898;9.184;2022-12-18T01:03:03;123.45;;;50.53;;
49842;SDS011;55559;48.898;9.184;2022-12-18T01:05:31;133.10;;;52.17;;
49842;SDS011;55559;48.898;9.184;2022-12-18T01:07:59;124.38;;;51.35;;
49842;SDS011;55559;48.898;9.184;2022-12-18T01:10:43;140.57;;;53.60;;
49842;SDS011;55559;48.898;9.184;2022-12-18T01:13:14;135.70;;;53.17;;
49842;SDS011;55559;48.898;9.184;2022-12-18T01:15:52;137.57;;;54.13;;
49842;SDS011;55559;48.898;9.184;2022-12-18T01:18:26;135.82;;;52.15;;
49842;SDS011;55559;48.898;9.184;2022-12-18T01:20:54;135.52;;;55.42;;
49842;SDS011;55559;48.898;9.184;2022-12-18T01:23:23;138.07;;;53.70;;
49842;SDS011;55559;48.898;9.184;2022-12-18T01:25:51;135.30;;;53.00;;
49842;SDS011;55559;48.898;9.184;2022-12-18T01:28:18;130.25;;;54.95;;
49842;SDS011;55559;48.898;9.184;2022-12-18T01:30:47;137.90;;;55.72;;
49842;SDS011;55559;48.898;9.184;2022-12-18T01:33:14;134.85;;;52.45;;
49842;SDS011;55559;48.898;9.184;2022-12-18T01:35:42;134.80;;;54.25;;
49842;SDS011;55559;48.898;9.184;2022-12-18T01:38:09;132.88;;;51.53;;
49842;SDS011;55559;48.898;9.184;2022-12-18T01:40:37;138.75;;;54.40;;
49842;SDS011;55559;48.898;9.184;2022-12-18T01:43:04;132.13;;;52.45;;
49842;SDS011;55559;48.898;9.184;2022-12-18T01:45:31;131.07;;;51.05;;
49842;SDS011;55559;48.898;9.184;2022-12-18T01:48:04;124.25;;;52.60;;
49842;SDS011;55559;48.898;9.184;2022-12-18T01:50:38;120.70;;;50.47;;
49842;SDS011;55559;48.898;9.184;2022-12-18T01:53:11;127.93;;;49.58;;
49842;SDS011;55559;48.898;9.184;2022-12-18T01:55:43;125.70;;;51.20;;
49842;SDS011;55559;48.898;9.184;2022-12-18T01:58:17;121.90;;;49.60;;
49842;SDS011;55559;48.898;9.184;2022-12-18T02:00:46;126.28;;;48.53;;
49842;SDS011;55559;48.898;9.184;2022-12-18T02:03:26;120.47;;;48.00;;
49842;SDS011;55559;48.898;9.184;2022-12-18T02:06:06;124.55;;;49.63;;
49842;SDS011;55559;48.898;9.184;2022-12-18T02:08:43;127.47;;;52.72;;
49842;SDS011;55559;48.898;9.184;2022-12-18T02:11:23;119.13;;;46.58;;
49842;SDS011;55559;48.898;9.184;2022-12-18T02:14:03;107.60;;;46.00;;
49842;SDS011;55559;48.898;9.184;2022-12-18T02:16:42;118.75;;;44.92;;
49842;SDS011;55559;48.898;9.184;2022-12-18T02:19:42;118.55;;;47.47;;
49842;SDS011;55559;48.898;9.184;2022-12-18T02:22:24;123.35;;;46.78;;
49842;SDS011;55559;48.898;9.184;2022-12-18T02:25:11;120.82;;;49.22;;
49842;SDS011;55559;48.898;9.184;2022-12-18T02:27:50;120.18;;;48.45;;
49842;SDS011;55559;48.898;9.184;2022-12-18T02:30:21;121.20;;;45.95;;
49842;SDS011;55559;48.898;9.184;2022-12-18T02:32:59;108.50;;;43.25;;
49842;SDS011;55559;48.898;9.184;2022-12-18T02:35:31;122.38;;;45.90;;
49842;SDS011;55559;48.898;9.184;2022-12-18T02:38:14;122.57;;;45.22;;
49842;SDS011;55559;48.898;9.184;2022-12-18T02:40:45;111.57;;;44.80;;
49842;SDS011;55559;48.898;9.184;2022-12-18T02:43:18;124.40;;;43.47;;
49842;SDS011;55559;48.898;9.184;2022-12-18T02:45:47;115.47;;;42.85;;
49842;SDS011;55559;48.898;9.184;2022-12-18T02:48:26;115.43;;;43.00;;
49842;SDS011;55559;48.898;9.184;2022-12-18T02:50:58;114.30;;;44.25;;
49842;SDS011;55559;48.898;9.184;2022-12-18T02:53:33;110.90;;;42.72;;
49842;SDS011;55559;48.898;9.184;2022-12-18T02:56:07;113.78;;;44.58;;
49842;SDS011;55559;48.898;9.184;2022-12-18T02:58:44;109.57;;;41.03;;
49842;SDS011;55559;48.898;9.184;2022-12-18T03:01:31;112.60;;;43.47;;
49842;SDS011;55559;48.898;9.184;2022-12-18T03:04:03;106.70;;;40.88;;
49842;SDS011;55559;48.898;9.184;2022-12-18T03:06:35;121.53;;;44.10;;
49842;SDS011;55559;48.898;9.184;2022-12-18T03:09:07;112.93;;;40.85;;
49842;SDS011;55559;48.898;9.184;2022-12-18T03:11:40;99.20;;;40.65;;
49842;SDS011;55559;48.898;9.184;2022-12-18T03:14:33;105.30;;;39.10;;
49842;SDS011;55559;48.898;9.184;2022-12-18T03:17:05;102.35;;;39.55;;
49842;SDS011;55559;48.898;9.184;2022-12-18T03:19:36;99.40;;;39.08;;
49842;SDS011;55559;48.898;9.184;2022-12-18T03:22:05;110.57;;;43.30;;
49842;SDS011;55559;48.898;9.184;2022-12-18T03:24:44;101.90;;;41.13;;
49842;SDS011;55559;48.898;9.184;2022-12-18T03:27:14;100.20;;;38.35;;
49842;SDS011;55559;48.898;9.184;2022-12-18T03:29:46;100.40;;;39.22;;
49842;SDS011;55559;48.898;9.184;2022-12-18T03:32:21;91.63;;;38.30;;
49842;SDS011;55559;48.898;9.184;2022-12-18T03:34:53;93.35;;;38.22;;
49842;SDS011;55559;48.898;9.184;2022-12-18T03:37:30;102.18;;;36.50;;
49842;SDS011;55559;48.898;9.184;2022-12-18T03:39:58;101.47;;;41.60;;
49842;SDS011;55559;48.898;9.184;2022-12-18T03:42:27;100.00;;;38.85;;
49842;SDS011;55559;48.898;9.184;2022-12-18T03:45:08;90.22;;;34.78;;
49842;SDS011;55559;48.898;9.184;2022-12-18T03:47:40;101.63;;;37.20;;
49842;SDS011;55559;48.898;9.184;2022-12-18T03:50:20;98.88;;;39.17;;
49842;SDS011;55559;48.898;9.184;2022-12-18T03:52:56;88.93;;;36.65;;
49842;SDS011;55559;48.898;9.184;2022-12-18T03:55:29;85.57;;;33.65;;
49842;SDS011;55559;48.898;9.184;2022-12-18T03:58:04;85.45;;;32.92;;
49842;SDS011;55559;48.898;9.184;2022-12-18T04:00:53;86.15;;;35.70;;
49842;SDS011;55559;48.898;9.184;2022-12-18T04:03:24;82.40;;;34.83;;
49842;SDS011;55559;48.898;9.184;2022-12-18T04:05:54;90.47;;;36.75;;
49842;SDS011;55559;48.898;9.184;2022-12-18T04:08:23;92.75;;;36.85;;
49842;SDS011;55559;48.898;9.184;2022-12-18T04:11:00;94.50;;;35.45;;
49842;SDS011;55559;48.898;9.184;2022-12-18T04:13:28;84.80;;;36.85;;
49842;SDS011;55559;48.898;9.184;2022-12-18T04:16:02;90.72;;;36.60;;
49842;SDS011;55559;48.898;9.184;2022-12-18T04:18:31;91.35;;;37.70;;
49842;SDS011;55559;48.898;9.184;2022-12-18T04:20:59;83.65;;;36.90;;
49842;SDS011;55559;48.898;9.184;2022-12-18T04:23:28;91.72;;;37.67;;
49842;SDS011;55559;48.898;9.184;2022-12-18T04:25:57;93.78;;;38.40;;
49842;SDS011;55559;48.898;9.184;2022-12-18T04:28:38;88.80;;;36.58;;
49842;SDS011;55559;48.898;9.184;2022-12-18T04:31:07;86.38;;;35.20;;
49842;SDS011;55559;48.898;9.184;2022-12-18T04:33:35;89.70;;;37.13;;
49842;SDS011;55559;48.898;9.184;2022-12-18T04:36:02;94.43;;;39.15;;
49842;SDS011;55559;48.898;9.184;2022-12-18T04:38:30;90.20;;;35.92;;
49842;SDS011;55559;48.898;9.184;2022-12-18T04:41:04;87.20;;;37.15;;
49842;SDS011;55559;48.898;9.184;2022-12-18T04:43:33;80.47;;;31.98;;
49842;SDS011;55559;48.898;9.184;2022-12-18T04:46:01;87.38;;;36.17;;
49842;SDS011;55559;48.898;9.184;2022-12-18T04:48:31;84.05;;;34.60;;
49842;SDS011;55559;48.898;9.184;2022-12-18T04:50:58;79.45;;;32.10;;
49842;SDS011;55559;48.898;9.184;2022-12-18T04:53:26;83.22;;;35.42;;
49842;SDS011;55559;48.898;9.184;2022-12-18T04:56:01;77.80;;;31.00;;
49842;SDS011;55559;48.898;9.184;2022-12-18T04:58:30;85.55;;;35.00;;
49842;SDS011;55559;48.898;9.184;2022-12-18T05:00:57;75.47;;;34.78;;
49842;SDS011;55559;48.898;9.184;2022-12-18T05:03:25;91.57;;;36.90;;
49842;SDS011;55559;48.898;9.184;2022-12-18T05:05:54;86.38;;;35.63;;
49842;SDS011;55559;48.898;9.184;2022-12-18T05:08:21;90.43;;;36.25;;
49842;SDS011;55559;48.898;9.184;2022-12-18T05:10:49;88.70;;;36.30;;
49842;SDS011;55559;48.898;9.184;2022-12-18T05:13:16;78.88;;;33.60;;
49842;SDS011;55559;48.898;9.184;2022-12-18T05:15:50;81.07;;;33.10;;
49842;SDS011;55559;48.898;9.184;2022-12-18T05:18:18;81.78;;;37.15;;
49842;SDS011;55559;48.898;9.184;2022-12-18T05:20:48;85.72;;;34.60;;
49842;SDS011;55559;48.898;9.184;2022-12-18T05:23:18;90.63;;;37.35;;
49842;SDS011;55559;48.898;9.184;2022-12-18T05:25:47;92.18;;;39.38;;
49842;SDS011;55559;48.898;9.184;2022-12-18T05:28:17;89.47;;;37.40;;
49842;SDS011;55559;48.898;9.184;2022-12-18T05:30:47;104.57;;;40.38;;
49842;SDS011;55559;48.898;9.184;2022-12-18T05:33:15;93.63;;;35.92;;
49842;SDS011;55559;48.898;9.184;2022-12-18T05:35:43;92.57;;;36.65;;
49842;SDS011;55559;48.898;9.184;2022-12-18T05:38:11;99.78;;;35.38;;
49842;SDS011;55559;48.898;9.184;2022-12-18T05:40:42;101.40;;;48.83;;
49842;SDS011;55559;48.898;9.184;2022-12-18T05:43:10;92.85;;;38.90;;
49842;SDS011;55559;48.898;9.184;2022-12-18T05:45:38;88.13;;;34.58;;
49842;SDS011;55559;48.898;9.184;2022-12-18T05:48:06;94.53;;;38.08;;
49842;SDS011;55559;48.898;9.184;2022-12-18T05:50:38;91.68;;;35.03;;
49842;SDS011;55559;48.898;9.184;2022-12-18T05:53:06;98.03;;;39.75;;
49842;SDS011;55559;48.898;9.184;2022-12-18T05:55:34;91.50;;;35.20;;
49842;SDS011;55559;48.898;9.184;2022-12-18T05:58:05;89.28;;;35.90;;
49842;SDS011;55559;48.898;9.184;2022-12-18T06:00:34;89.15;;;37.20;;
49842;SDS011;55559;48.898;9.184;2022-12-18T06:03:05;89.68;;;34.53;;
49842;SDS011;55559;48.898;9.184;2022-12-18T06:05:34;82.97;;;34.90;;
49842;SDS011;55559;48.898;9.184;2022-12-18T06:08:02;94.85;;;35.70;;
49842;SDS011;55559;48.898;9.184;2022-12-18T06:10:30;81.03;;;34.85;;
49842;SDS011;55559;48.898;9.184;2022-12-18T06:12:58;100.75;;;42.85;;
49842;SDS011;55559;48.898;9.184;2022-12-18T06:15:26;87.63;;;35.22;;
49842;SDS011;55559;48.898;9.184;2022-12-18T06:17:54;92.18;;;35.72;;
49842;SDS011;55559;48.898;9.184;2022-12-18T06:20:22;94.25;;;36.78;;
49842;SDS011;55559;48.898;9.184;2022-12-18T06:22:49;90.72;;;36.10;;
49842;SDS011;55559;48.898;9.184;2022-12-18T06:25:17;98.43;;;36.92;;
49842;SDS011;55559;48.898;9.184;2022-12-18T06:27:46;83.40;;;34.35;;
49842;SDS011;55559;48.898;9.184;2022-12-18T06:30:14;93.07;;;36.85;;
49842;SDS011;55559;48.898;9.184;2022-12-18T06:32:43;82.45;;;32.55;;
49842;SDS011;55559;48.898;9.184;2022-12-18T06:35:11;94.18;;;34.05;;
49842;SDS011;55559;48.898;9.184;2022-12-18T06:37:38;81.22;;;31.90;;
49842;SDS011;55559;48.898;9.184;2022-12-18T06:40:06;82.22;;;35.13;;
49842;SDS011;55559;48.898;9.184;2022-12-18T06:42:34;84.72;;;34.45;;
49842;SDS011;55559;48.898;9.184;2022-12-18T06:45:01;88.15;;;35.40;;
49842;SDS011;55559;48.898;9.184;2022-12-18T06:47:28;82.78;;;33.83;;
49842;SDS011;55559;48.898;9.184;2022-12-18T06:49:56;91.25;;;36.55;;
49842;SDS011;55559;48.898;9.184;2022-12-18T06:52:31;84.38;;;34.50;;
49842;SDS011;55559;48.898;9.184;2022-12-18T06:54:58;78.63;;;31.98;;
49842;SDS011;55559;48.898;9.184;2022-12-18T06:57:28;81.90;;;31.40;;
49842;SDS011;55559;48.898;9.184;2022-12-18T06:59:55;81.00;;;33.22;;
49842;SDS011;55559;48.898;9.184;2022-12-18T07:02:23;89.03;;;33.25;;
49842;SDS011;55559;48.898;9.184;2022-12-18T07:04:50;82.75;;;32.95;;
49842;SDS011;55559;48.898;9.184;2022-12-18T07:07:19;84.28;;;34.75;;
49842;SDS011;55559;48.898;9.184;2022-12-18T07:09:46;96.57;;;43.65;;
49842;SDS011;55559;48.898;9.184;2022-12-18T07:12:15;92.25;;;40.13;;
49842;SDS011;55559;48.898;9.184;2022-12-18T07:14:43;89.78;;;37.13;;
49842;SDS011;55559;48.898;9.184;2022-12-18T07:17:15;95.50;;;39.90;;
49842;SDS011;55559;48.898;9.184;2022-12-18T07:19:43;75.03;;;32.60;;
49842;SDS011;55559;48.898;9.184;2022-12-18T07:22:10;77.82;;;33.08;;
49842;SDS011;55559;48.898;9.184;2022-12-18T07:24:39;77.18;;;31.95;;
49842;SDS011;55559;48.898;9.184;2022-12-18T07:27:07;77.38;;;32.70;;
49842;SDS011;55559;48.898;9.184;2022-12-18T07:29:34;77.68;;;33.42;;
49842;SDS011;55559;48.898;9.184;2022-12-18T07:32:01;88.47;;;31.70;;
49842;SDS011;55559;48.898;9.184;2022-12-18T07:34:29;82.15;;;31.85;;
49842;SDS011;55559;48.898;9.184;2022-12-18T07:36:56;84.57;;;33.42;;
49842;SDS011;55559;48.898;9.184;2022-12-18T07:39:24;79.45;;;30.08;;
49842;SDS011;55559;48.898;9.184;2022-12-18T07:41:53;77.75;;;32.83;;
49842;SDS011;55559;48.898;9.184;2022-12-18T07:44:34;86.10;;;32.38;;
49842;SDS011;55559;48.898;9.184;2022-12-18T07:47:02;81.78;;;33.58;;
49842;SDS011;55559;48.898;9.184;2022-12-18T07:49:29;64.82;;;28.95;;
49842;SDS011;55559;48.898;9.184;2022-12-18T07:51:57;78.75;;;31.88;;
49842;SDS011;55559;48.898;9.184;2022-12-18T07:54:26;75.35;;;31.40;;
49842;SDS011;55559;48.898;9.184;2022-12-18T07:56:56;70.57;;;30.83;;
49842;SDS011;55559;48.898;9.184;2022-12-18T07:59:23;82.75;;;29.48;;
49842;SDS011;55559;48.898;9.184;2022-12-18T08:01:51;72.82;;;28.85;;
49842;SDS011;55559;48.898;9.184;2022-12-18T08:04:18;72.45;;;31.17;;
49842;SDS011;55559;48.898;9.184;2022-12-18T08:06:46;72.13;;;31.95;;
49842;SDS011;55559;48.898;9.184;2022-12-18T08:09:13;83.80;;;31.83;;
49842;SDS011;55559;48.898;9.184;2022-12-18T08:11:41;78.68;;;33.97;;
49842;SDS011;55559;48.898;9.184;2022-12-18T08:14:10;75.95;;;31.45;;
49842;SDS011;55559;48.898;9.184;2022-12-18T08:16:37;69.13;;;28.92;;
49842;SDS011;55559;48.898;9.184;2022-12-18T08:19:05;77.18;;;31.20;;
49842;SDS011;55559;48.898;9.184;2022-12-18T08:21:32;69.57;;;29.35;;
49842;SDS011;55559;48.898;9.184;2022-12-18T08:24:00;76.65;;;30.80;;
49842;SDS011;55559;48.898;9.184;2022-12-18T08:26:29;77.25;;;32.13;;
49842;SDS011;55559;48.898;9.184;2022-12-18T08:28:58;79.95;;;30.58;;
49842;SDS011;55559;48.898;9.184;2022-12-18T08:31:28;80.28;;;33.15;;
49842;SDS011;55559;48.898;9.184;2022-12-18T08:33:56;78.55;;;31.88;;
49842;SDS011;55559;48.898;9.184;2022-12-18T08:36:24;77.80;;;31.58;;
49842;SDS011;55559;48.898;9.184;2022-12-18T08:38:52;80.28;;;33.63;;
49842;SDS011;55559;48.898;9.184;2022-12-18T08:41:20;76.45;;;32.78;;
49842;SDS011;55559;48.898;9.184;2022-12-18T08:43:48;76.55;;;29.98;;
49842;SDS011;55559;48.898;9.184;2022-12-18T08:46:35;72.85;;;30.58;;
49842;SDS011;55559;48.898;9.184;2022-12-18T08:49:04;74.18;;;30.05;;
49842;SDS011;55559;48.898;9.184;2022-12-18T08:51:33;71.07;;;30.80;;
49842;SDS011;55559;48.898;9.184;2022-12-18T08:54:01;73.93;;;31.90;;
49842;SDS011;55559;48.898;9.184;2022-12-18T08:56:29;78.63;;;31.00;;
49842;SDS011;55559;48.898;9.184;2022-12-18T08:58:57;77.10;;;30.92;;
49842;SDS011;55559;48.898;9.184;2022-12-18T09:01:24;75.80;;;30.42;;
49842;SDS011;55559;48.898;9.184;2022-12-18T09:03:53;70.28;;;30.50;;
49842;SDS011;55559;48.898;9.184;2022-12-18T09:06:22;74.88;;;34.35;;
49842;SDS011;55559;48.898;9.184;2022-12-18T09:08:50;70.10;;;30.27;;
49842;SDS011;55559;48.898;9.184;2022-12-18T09:11:19;72.72;;;32.22;;
49842;SDS011;55559;48.898;9.184;2022-12-18T09:13:48;75.78;;;30.13;;
49842;SDS011;55559;48.898;9.184;2022-12-18T09:16:15;77.40;;;32.80;;
49842;SDS011;55559;48.898;9.184;2022-12-18T09:18:43;87.10;;;35.05;;
49842;SDS011;55559;48.898;9.184;2022-12-18T09:21:13;82.88;;;33.92;;
49842;SDS011;55559;48.898;9.184;2022-12-18T09:23:42;77.20;;;35.13;;
49842;SDS011;55559;48.898;9.184;2022-12-18T09:26:10;77.45;;;34.28;;
49842;SDS011;55559;48.898;9.184;2022-12-18T09:28:37;79.85;;;33.53;;
49842;SDS011;55559;48.898;9.184;2022-12-18T09:31:05;75.95;;;30.50;;
49842;SDS011;55559;48.898;9.184;2022-12-18T09:33:35;81.07;;;35.15;;
49842;SDS011;55559;48.898;9.184;2022-12-18T09:36:05;80.18;;;36.85;;
49842;SDS011;55559;48.898;9.184;2022-12-18T09:38:36;77.32;;;33.53;;
49842;SDS011;55559;48.898;9.184;2022-12-18T09:41:04;92.68;;;39.35;;
49842;SDS011;55559;48.898;9.184;2022-12-18T09:43:44;73.50;;;32.13;;
49842;SDS011;55559;48.898;9.184;2022-12-18T09:46:16;80.93;;;34.33;;
49842;SDS011;55559;48.898;9.184;2022-12-18T09:48:47;78.25;;;33.58;;
49842;SDS011;55559;48.898;9.184;2022-12-18T09:51:18;80.93;;;33.08;;
49842;SDS011;55559;48.898;9.184;2022-12-18T09:53:51;84.93;;;32.63;;
49842;SDS011;55559;48.898;9.184;2022-12-18T09:56:23;77.00;;;31.92;;
49842;SDS011;55559;48.898;9.184;2022-12-18T09:58:55;84.57;;;33.92;;
49842;SDS011;55559;48.898;9.184;2022-12-18T10:01:25;79.65;;;33.95;;
49842;SDS011;55559;48.898;9.184;2022-12-18T10:03:53;83.38;;;34.22;;
49842;SDS011;55559;48.898;9.184;2022-12-18T10:06:22;91.35;;;36.88;;
49842;SDS011;55559;48.898;9.184;2022-12-18T10:08:57;79.28;;;34.22;;
49842;SDS011;55559;48.898;9.184;2022-12-18T10:11:34;87.43;;;36.38;;
49842;SDS011;55559;48.898;9.184;2022-12-18T10:14:09;80.20;;;31.58;;
49842;SDS011;55559;48.898;9.184;2022-12-18T10:16:48;85.07;;;39.22;;
49842;SDS011;55559;48.898;9.184;2022-12-18T10:19:28;83.80;;;34.95;;
49842;SDS011;55559;48.898;9.184;2022-12-18T10:22:07;82.15;;;34.55;;
49842;SDS011;55559;48.898;9.184;2022-12-18T10:24:48;75.07;;;33.72;;
49842;SDS011;55559;48.898;9.184;2022-12-18T10:27:22;80.82;;;33.50;;
49842;SDS011;55559;48.898;9.184;2022-12-18T10:29:51;84.82;;;34.08;;
49842;SDS011;55559;48.898;9.184;2022-12-18T10:32:20;81.30;;;33.45;;
49842;SDS011;55559;48.898;9.184;2022-12-18T10:34:50;78.65;;;31.33;;
49842;SDS011;55559;48.898;9.184;2022-12-18T10:37:23;77.80;;;32.47;;
49842;SDS011;55559;48.898;9.184;2022-12-18T10:43:02;76.90;;;31.35;;
49842;SDS011;55559;48.898;9.184;2022-12-18T10:45:33;78.63;;;33.10;;
49842;SDS011;55559;48.898;9.184;2022-12-18T10:48:00;80.50;;;34.22;;
49842;SDS011;55559;48.898;9.184;2022-12-18T10:50:29;82.70;;;34.28;;
49842;SDS011;55559;48.898;9.184;2022-12-18T10:53:00;76.30;;;32.80;;
49842;SDS011;55559;48.898;9.184;2022-12-18T10:55:32;83.60;;;34.20;;
49842;SDS011;55559;48.898;9.184;2022-12-18T10:58:20;56.77;;;25.60;;
49842;SDS011;55559;48.898;9.184;2022-12-18T11:01:07;76.97;;;33.53;;
49842;SDS011;55559;48.898;9.184;2022-12-18T11:03:37;76.80;;;32.25;;
49842;SDS011;55559;48.898;9.184;2022-12-18T11:06:07;111.47;;;48.35;;
49842;SDS011;55559;48.898;9.184;2022-12-18T11:08:37;90.82;;;39.13;;
49842;SDS011;55559;48.898;9.184;2022-12-18T11:11:22;81.45;;;35.60;;
49842;SDS011;55559;48.898;9.184;2022-12-18T11:13:54;75.80;;;30.88;;
49842;SDS011;55559;48.898;9.184;2022-12-18T11:16:26;77.30;;;32.58;;
49842;SDS011;55559;48.898;9.184;2022-12-18T11:18:59;75.03;;;33.88;;
49842;SDS011;55559;48.898;9.184;2022-12-18T11:21:46;74.00;;;31.20;;
49842;SDS011;55559;48.898;9.184;2022-12-18T11:24:19;75.78;;;33.38;;
49842;SDS011;55559;48.898;9.184;2022-12-18T11:26:51;67.22;;;28.95;;
49842;SDS011;55559;48.898;9.184;2022-12-18T11:29:22;69.68;;;30.13;;
49842;SDS011;55559;48.898;9.184;2022-12-18T11:31:59;76.97;;;35.78;;
49842;SDS011;55559;48.898;9.184;2022-12-18T11:34:48;73.18;;;33.03;;
49842;SDS011;55559;48.898;9.184;2022-12-18T11:37:19;70.57;;;33.80;;
49842;SDS011;55559;48.898;9.184;2022-12-18T11:39:49;82.18;;;34.13;;
49842;SDS011;55559;48.898;9.184;2022-12-18T11:42:25;80.60;;;38.15;;
49842;SDS011;55559;48.898;9.184;2022-12-18T11:45:00;73.93;;;31.05;;
49842;SDS011;55559;48.898;9.184;2022-12-18T11:47:37;72.40;;;32.22;;
49842;SDS011;55559;48.898;9.184;2022-12-18T11:50:10;79.88;;;35.33;;
49842;SDS011;55559;48.898;9.184;2022-12-18T11:52:41;96.10;;;41.10;;
49842;SDS011;55559;48.898;9.184;2022-12-18T11:55:10;84.93;;;35.60;;
49842;SDS011;55559;48.898;9.184;2022-12-18T11:57:44;71.82;;;31.02;;
49842;SDS011;55559;48.898;9.184;2022-12-18T12:00:20;96.68;;;38.38;;
49842;SDS011;55559;48.898;9.184;2022-12-18T12:05:46;69.05;;;34.63;;
49842;SDS011;55559;48.898;9.184;2022-12-18T12:08:27;70.20;;;33.10;;
49842;SDS011;55559;48.898;9.184;2022-12-18T12:11:04;72.68;;;32.58;;
49842;SDS011;55559;48.898;9.184;2022-12-18T12:13:41;72.00;;;31.52;;
49842;SDS011;55559;48.898;9.184;2022-12-18T12:16:17;74.93;;;31.30;;
49842;SDS011;55559;48.898;9.184;2022-12-18T12:19:02;71.10;;;31.02;;
49842;SDS011;55559;48.898;9.184;2022-12-18T12:21:39;75.45;;;34.78;;
49842;SDS011;55559;48.898;9.184;2022-12-18T12:24:12;85.88;;;34.88;;
49842;SDS011;55559;48.898;9.184;2022-12-18T12:26:57;65.60;;;28.67;;
49842;SDS011;55559;48.898;9.184;2022-12-18T12:29:39;88.43;;;40.35;;
49842;SDS011;55559;48.898;9.184;2022-12-18T12:32:19;104.90;;;50.47;;
49842;SDS011;55559;48.898;9.184;2022-12-18T12:35:03;75.60;;;33.88;;
49842;SDS011;55559;48.898;9.184;2022-12-18T12:37:43;120.63;;;50.92;;
49842;SDS011;55559;48.898;9.184;2022-12-18T12:40:20;89.30;;;40.75;;
49842;SDS011;55559;48.898;9.184;2022-12-18T12:42:54;77.55;;;35.40;;
49842;SDS011;55559;48.898;9.184;2022-12-18T12:45:42;75.13;;;33.88;;
49842;SDS011;55559;48.898;9.184;2022-12-18T12:48:16;67.32;;;30.02;;
49842;SDS011;55559;48.898;9.184;2022-12-18T12:50:49;71.05;;;30.58;;
49842;SDS011;55559;48.898;9.184;2022-12-18T12:53:23;76.05;;;36.00;;
49842;SDS011;55559;48.898;9.184;2022-12-18T12:55:56;71.97;;;32.38;;
49842;SDS011;55559;48.898;9.184;2022-12-18T12:58:26;76.05;;;35.47;;
49842;SDS011;55559;48.898;9.184;2022-12-18T13:01:04;69.40;;;33.17;;
49842;SDS011;55559;48.898;9.184;2022-12-18T13:03:46;74.82;;;35.67;;
49842;SDS011;55559;48.898;9.184;2022-12-18T13:06:24;71.07;;;32.15;;
49842;SDS011;55559;48.898;9.184;2022-12-18T13:09:02;79.40;;;38.88;;
49842;SDS011;55559;48.898;9.184;2022-12-18T13:11:31;109.63;;;45.65;;
49842;SDS011;55559;48.898;9.184;2022-12-18T13:14:20;100.32;;;42.50;;
49842;SDS011;55559;48.898;9.184;2022-12-18T13:16:52;112.85;;;46.75;;
49842;SDS011;55559;48.898;9.184;2022-12-18T13:20:07;80.82;;;37.97;;
49842;SDS011;55559;48.898;9.184;2022-12-18T13:22:40;89.75;;;41.15;;
49842;SDS011;55559;48.898;9.184;2022-12-18T13:25:27;74.18;;;32.97;;
49842;SDS011;55559;48.898;9.184;2022-12-18T13:28:09;77.50;;;33.38;;
49842;SDS011;55559;48.898;9.184;2022-12-18T13:30:49;70.90;;;33.03;;
49842;SDS011;55559;48.898;9.184;2022-12-18T13:36:27;79.50;;;35.30;;
49842;SDS011;55559;48.898;9.184;2022-12-18T13:41:54;71.43;;;33.15;;
49842;SDS011;55559;48.898;9.184;2022-12-18T13:45:43;66.65;;;27.65;;
49842;SDS011;55559;48.898;9.184;2022-12-18T13:48:19;68.95;;;31.85;;
49842;SDS011;55559;48.898;9.184;2022-12-18T13:50:52;62.15;;;28.98;;
49842;SDS011;55559;48.898;9.184;2022-12-18T13:53:23;67.57;;;30.48;;
49842;SDS011;55559;48.898;9.184;2022-12-18T13:55:54;67.32;;;30.35;;
49842;SDS011;55559;48.898;9.184;2022-12-18T13:58:22;63.53;;;29.48;;
49842;SDS011;55559;48.898;9.184;2022-12-18T14:00:49;65.65;;;28.38;;
49842;SDS011;55559;48.898;9.184;2022-12-18T14:03:18;69.78;;;29.55;;
49842;SDS011;55559;48.898;9.184;2022-12-18T14:05:53;59.58;;;27.85;;
49842;SDS011;55559;48.898;9.184;2022-12-18T14:08:27;64.03;;;30.02;;
49842;SDS011;55559;48.898;9.184;2022-12-18T14:11:01;62.80;;;27.73;;
49842;SDS011;55559;48.898;9.184;2022-12-18T14:13:33;63.83;;;28.92;;
49842;SDS011;55559;48.898;9.184;2022-12-18T14:16:03;67.82;;;30.70;;
49842;SDS011;55559;48.898;9.184;2022-12-18T14:18:36;59.22;;;28.35;;
49842;SDS011;55559;48.898;9.184;2022-12-18T14:21:16;64.05;;;28.60;;
49842;SDS011;55559;48.898;9.184;2022-12-18T14:23:47;61.28;;;28.48;;
49842;SDS011;55559;48.898;9.184;2022-12-18T14:26:21;71.93;;;31.58;;
49842;SDS011;55559;48.898;9.184;2022-12-18T14:28:53;68.18;;;30.25;;
49842;SDS011;55559;48.898;9.184;2022-12-18T14:31:21;67.68;;;29.45;;
49842;SDS011;55559;48.898;9.184;2022-12-18T14:33:50;67.47;;;30.73;;
49842;SDS011;55559;48.898;9.184;2022-12-18T14:36:19;70.20;;;31.67;;
49842;SDS011;55559;48.898;9.184;2022-12-18T14:38:49;72.25;;;31.02;;
49842;SDS011;55559;48.898;9.184;2022-12-18T14:41:19;68.93;;;31.75;;
49842;SDS011;55559;48.898;9.184;2022-12-18T14:43:48;70.18;;;31.45;;
49842;SDS011;55559;48.898;9.184;2022-12-18T14:46:30;67.45;;;30.80;;
49842;SDS011;55559;48.898;9.184;2022-12-18T14:49:02;79.28;;;32.05;;
49842;SDS011;55559;48.898;9.184;2022-12-18T14:51:33;73.45;;;30.95;;
49842;SDS011;55559;48.898;9.184;2022-12-18T14:54:01;67.18;;;30.92;;
49842;SDS011;55559;48.898;9.184;2022-12-18T14:56:31;67.32;;;29.92;;
49842;SDS011;55559;48.898;9.184;2022-12-18T14:59:00;73.55;;;32.83;;
49842;SDS011;55559;48.898;9.184;2022-12-18T15:01:30;77.60;;;33.53;;